Time;durP1;ratioP1;P1;durP2;ratioP2;P2;SDS_P1;SDS_P2;PMS_P1;PMS_P2;Temp;Humidity;BMP_temperature;BMP_pressure;BME280_temperature;BME280_humidity;BME280_pressure;Samples;Min_cycle;Max_cycle;Signal;HPM_P1;HPM_P2
2022/06/01 00:00:47;;;;;;;5.20;4.40;;;16.10;99.90;;;;;;5058546;28;20021;-91
2022/06/01 00:03:13;;;;;;;5.93;4.65;;;16.20;99.90;;;;;;5058452;28;20063;-91
2022/06/01 00:05:39;;;;;;;4.82;4.43;;;16.20;99.90;;;;;;5058162;28;20024;-91
2022/06/01 00:08:06;;;;;;;6.63;4.20;;;16.10;99.90;;;;;;5058057;28;20116;-90
2022/06/01 00:10:32;;;;;;;6.60;4.30;;;16.10;99.90;;;;;;5058504;28;20025;-91
2022/06/01 00:12:58;;;;;;;5.03;4.57;;;16.10;99.90;;;;;;5058340;28;20166;-92
2022/06/01 00:15:25;;;;;;;5.72;4.78;;;16.10;99.90;;;;;;5058134;28;20044;-91
2022/06/01 00:17:51;;;;;;;4.72;4.15;;;16.00;99.90;;;;;;5058316;28;20048;-91
2022/06/01 00:20:18;;;;;;;4.82;4.43;;;16.00;99.90;;;;;;5058094;28;20024;-91
2022/06/01 00:22:44;;;;;;;4.97;4.53;;;16.00;99.90;;;;;;5058133;28;20024;-91
2022/06/01 00:25:19;;;;;;;5.85;4.32;;;16.00;99.90;;;;;;5058033;28;20427;-92
2022/06/01 00:27:45;;;;;;;5.18;4.70;;;15.90;99.90;;;;;;5075886;28;20025;-91
2022/06/01 00:30:14;;;;;;;5.05;4.57;;;15.90;99.90;;;;;;5076067;28;20028;-92
2022/06/01 00:32:39;;;;;;;5.10;4.60;;;15.90;99.90;;;;;;5058103;28;20017;-92
2022/06/01 00:35:07;;;;;;;5.82;4.18;;;15.90;99.90;;;;;;5075599;28;20478;-91
2022/06/01 00:37:33;;;;;;;8.27;4.63;;;15.90;99.90;;;;;;5057761;28;20051;-91
2022/06/01 00:39:58;;;;;;;5.10;4.63;;;15.90;99.90;;;;;;5057787;28;20032;-92
2022/06/01 00:42:28;;;;;;;4.88;4.28;;;15.80;99.90;;;;;;5057721;28;20474;-91
2022/06/01 00:44:54;;;;;;;5.63;4.50;;;15.80;99.90;;;;;;5075362;28;20494;-92
2022/06/01 00:47:21;;;;;;;5.50;4.55;;;15.80;99.90;;;;;;5057757;28;20032;-91
2022/06/01 00:49:52;;;;;;;4.85;4.45;;;15.80;99.90;;;;;;5057599;28;20025;-92
2022/06/01 00:52:35;;;;;;;5.22;4.72;;;15.80;99.90;;;;;;5057594;28;20088;-91
2022/06/01 00:55:08;;;;;;;6.97;4.55;;;15.80;99.90;;;;;;5057488;28;20025;-91
2022/06/01 00:57:34;;;;;;;6.43;5.10;;;15.80;99.90;;;;;;5057374;28;20028;-92
2022/06/01 01:00:05;;;;;;;6.53;4.88;;;15.70;99.90;;;;;;5057384;28;20029;-92
2022/06/01 01:02:31;;;;;;;7.78;5.05;;;15.70;99.90;;;;;;5057471;28;20038;-92
2022/06/01 01:04:57;;;;;;;5.75;4.65;;;15.60;99.90;;;;;;5057311;28;20103;-91
2022/06/01 01:07:26;;;;;;;4.95;4.50;;;15.70;99.90;;;;;;5057264;28;20052;-92
2022/06/01 01:09:52;;;;;;;5.53;5.03;;;15.70;99.90;;;;;;5057278;28;20466;-92
2022/06/01 01:12:18;;;;;;;11.07;7.22;;;15.60;99.90;;;;;;5057089;28;20021;-92
2022/06/01 01:14:45;;;;;;;8.25;5.43;;;15.70;99.90;;;;;;5074958;28;20024;-92
2022/06/01 01:17:12;;;;;;;5.13;4.63;;;15.70;99.90;;;;;;5056287;28;20070;-92
2022/06/01 01:19:46;;;;;;;7.85;4.72;;;15.70;99.90;;;;;;5057066;28;20070;-92
2022/06/01 01:22:21;;;;;;;4.80;4.38;;;15.70;99.90;;;;;;5056999;28;20025;-92
2022/06/01 01:25:07;;;;;;;5.22;4.72;;;15.70;99.90;;;;;;5056972;28;20085;-92
2022/06/01 01:27:33;;;;;;;5.97;4.72;;;15.60;99.90;;;;;;5042811;28;20024;-95
2022/06/01 01:29:59;;;;;;;10.90;6.43;;;15.60;99.90;;;;;;5056694;28;20136;-91
2022/06/01 01:32:24;;;;;;;6.25;5.25;;;15.60;99.90;;;;;;5056837;28;20025;-93
2022/06/01 01:34:50;;;;;;;5.35;4.85;;;15.60;99.90;;;;;;5056695;28;20029;-94
2022/06/01 01:37:21;;;;;;;8.80;5.20;;;15.50;99.90;;;;;;5056820;28;20127;-92
2022/06/01 01:39:49;;;;;;;5.40;4.78;;;15.50;99.90;;;;;;5056864;28;20047;-92
2022/06/01 01:42:15;;;;;;;7.88;5.15;;;15.60;99.90;;;;;;5056747;28;20086;-93
2022/06/01 01:45:02;;;;;;;6.82;5.03;;;15.60;99.90;;;;;;5056898;28;20029;-92
2022/06/01 01:47:28;;;;;;;7.10;5.47;;;15.60;99.90;;;;;;5057225;28;20123;-93
2022/06/01 01:49:54;;;;;;;7.10;5.13;;;15.50;99.90;;;;;;5056572;28;20056;-92
2022/06/01 01:52:19;;;;;;;5.82;4.70;;;15.50;99.90;;;;;;5057418;28;20017;-92
2022/06/01 01:54:51;;;;;;;14.90;4.80;;;15.60;99.90;;;;;;5056495;28;20561;-92
2022/06/01 01:57:51;;;;;;;4.90;4.50;;;15.50;99.90;;;;;;5056516;28;20359;-91
2022/06/01 02:00:34;;;;;;;6.20;4.47;;;15.50;99.90;;;;;;5074212;28;20059;-92
2022/06/01 02:03:13;;;;;;;4.95;4.55;;;15.50;99.90;;;;;;5056485;28;20025;-92
2022/06/01 02:08:35;;;;;;;5.80;5.00;;;15.50;99.90;;;;;;5074694;28;20600;-92
2022/06/01 02:13:52;;;;;;;5.60;4.43;;;15.40;99.90;;;;;;5074259;28;20028;-93
2022/06/01 02:16:20;;;;;;;5.38;4.50;;;15.40;99.90;;;;;;5056420;28;20455;-92
2022/06/01 02:18:51;;;;;;;4.60;4.20;;;15.40;99.90;;;;;;5056626;28;20032;-93
2022/06/01 02:21:25;;;;;;;7.30;4.57;;;15.40;99.90;;;;;;5056402;28;20032;-93
2022/06/01 02:23:53;;;;;;;5.47;4.25;;;15.50;99.90;;;;;;5056276;28;20028;-93
2022/06/01 02:26:20;;;;;;;5.05;4.30;;;15.50;99.90;;;;;;5056104;28;20078;-93
2022/06/01 02:28:48;;;;;;;5.95;5.00;;;15.60;99.90;;;;;;5059066;28;20017;-92
2022/06/01 02:31:16;;;;;;;5.25;4.70;;;15.60;99.90;;;;;;5060243;28;20021;-91
2022/06/01 02:33:44;;;;;;;5.50;4.63;;;15.70;99.90;;;;;;5078086;28;20025;-93
2022/06/01 02:36:14;;;;;;;8.68;4.85;;;15.70;99.90;;;;;;5060172;28;20024;-93
2022/06/01 02:38:46;;;;;;;5.60;4.57;;;15.70;99.90;;;;;;5020747;28;20506;-93
2022/06/01 02:43:57;;;;;;;5.38;4.45;;;15.70;99.90;;;;;;5038307;28;20032;-92
2022/06/01 02:46:23;;;;;;;6.32;4.47;;;15.80;99.90;;;;;;5037829;28;20026;-92
2022/06/01 02:48:49;;;;;;;6.95;4.18;;;15.80;99.90;;;;;;5037991;28;20097;-93
2022/06/01 02:51:17;;;;;;;10.75;4.78;;;15.80;99.90;;;;;;5020270;28;20025;-92
2022/06/01 02:53:43;;;;;;;6.47;4.50;;;15.80;99.90;;;;;;5020351;28;20017;-91
2022/06/01 02:56:09;;;;;;;5.57;4.20;;;15.80;99.90;;;;;;5038136;28;20036;-92
2022/06/01 02:58:34;;;;;;;4.88;4.38;;;15.80;99.90;;;;;;5020325;28;20048;-93
2022/06/01 03:01:01;;;;;;;5.13;4.72;;;15.80;99.90;;;;;;5020465;28;20032;-92
2022/06/01 03:03:27;;;;;;;5.55;4.43;;;15.80;99.90;;;;;;5037673;28;20104;-93
2022/06/01 03:05:52;;;;;;;8.13;4.78;;;15.80;99.90;;;;;;5019677;28;20484;-93
2022/06/01 03:08:18;;;;;;;5.50;5.00;;;15.80;99.90;;;;;;5019909;28;20533;-93
2022/06/01 03:10:44;;;;;;;5.13;4.50;;;15.80;99.90;;;;;;5037505;28;20022;-91
2022/06/01 03:13:11;;;;;;;6.78;4.15;;;15.90;99.90;;;;;;5020052;28;20021;-92
2022/06/01 03:15:37;;;;;;;4.63;4.20;;;15.90;99.90;;;;;;5019651;28;20112;-92
2022/06/01 03:18:03;;;;;;;4.80;4.30;;;16.10;99.90;;;;;;5019726;28;20064;-91
2022/06/01 03:20:29;;;;;;;4.82;4.43;;;16.00;99.90;;;;;;5019739;28;20025;-92
2022/06/01 03:22:59;;;;;;;5.00;4.15;;;16.10;99.90;;;;;;5019875;28;20038;-92
2022/06/01 03:25:26;;;;;;;5.90;4.68;;;16.10;99.90;;;;;;5020336;28;20037;-92
2022/06/01 03:27:53;;;;;;;4.80;4.20;;;16.10;99.90;;;;;;5037159;28;20535;-92
2022/06/01 03:30:21;;;;;;;7.55;4.57;;;16.20;99.90;;;;;;5019684;28;20399;-93
2022/06/01 03:32:47;;;;;;;5.05;4.50;;;16.20;99.90;;;;;;5032171;28;20029;-92
2022/06/01 03:35:16;;;;;;;4.88;4.20;;;16.20;99.90;;;;;;5058909;28;20047;-91
2022/06/01 03:37:41;;;;;;;5.47;4.90;;;16.20;99.90;;;;;;5059158;28;20033;-92
2022/06/01 03:40:08;;;;;;;4.95;4.47;;;16.20;99.90;;;;;;5058605;28;20029;-91
2022/06/01 03:42:34;;;;;;;5.07;4.57;;;16.30;99.90;;;;;;5059485;28;20040;-91
2022/06/01 03:47:45;;;;;;;5.15;4.70;;;16.40;99.90;;;;;;5076891;28;20055;-91
2022/06/01 03:50:12;;;;;;;8.13;4.65;;;16.40;99.90;;;;;;5058902;28;20027;-92
2022/06/01 03:52:39;;;;;;;7.15;4.80;;;16.40;99.90;;;;;;5076897;28;20017;-91
2022/06/01 03:55:08;;;;;;;6.47;4.90;;;16.50;99.90;;;;;;5058972;28;20471;-91
2022/06/01 03:57:37;;;;;;;6.32;4.90;;;16.50;99.90;;;;;;5058755;28;20039;-91
2022/06/01 04:00:05;;;;;;;5.18;4.65;;;16.60;99.90;;;;;;5076522;28;20028;-92
2022/06/01 04:02:31;;;;;;;4.85;4.45;;;16.60;99.90;;;;;;5058744;28;20035;-92
2022/06/01 04:04:58;;;;;;;5.05;4.35;;;16.60;99.90;;;;;;5058776;28;20021;-91
2022/06/01 04:07:24;;;;;;;6.43;4.70;;;16.60;99.90;;;;;;5058536;28;20543;-93
2022/06/01 04:09:50;;;;;;;5.25;4.40;;;16.70;99.90;;;;;;5076423;28;20029;-92
2022/06/01 04:12:16;;;;;;;6.43;4.70;;;16.70;99.90;;;;;;5076394;28;20077;-91
2022/06/01 04:14:41;;;;;;;5.38;4.90;;;16.70;99.90;;;;;;5058303;28;20112;-90
2022/06/01 04:17:07;;;;;;;4.78;4.38;;;16.70;99.90;;;;;;5058516;28;20036;-92
2022/06/01 04:19:33;;;;;;;4.93;4.30;;;16.80;99.90;;;;;;5058394;28;20116;-92
2022/06/01 04:21:59;;;;;;;6.10;4.90;;;16.90;99.90;;;;;;5057721;28;20470;-91
2022/06/01 04:24:28;;;;;;;5.13;4.63;;;17.00;99.90;;;;;;5055832;28;20125;-91
2022/06/01 04:26:54;;;;;;;5.90;4.30;;;17.00;99.90;;;;;;5050956;28;20120;-91
2022/06/01 04:29:20;;;;;;;5.30;4.45;;;17.10;99.90;;;;;;5038722;28;20056;-91
2022/06/01 04:31:46;;;;;;;5.75;4.60;;;17.20;99.90;;;;;;5042776;28;20024;-90
2022/06/01 04:34:12;;;;;;;4.75;4.35;;;17.40;99.90;;;;;;5038870;28;20021;-91
2022/06/01 04:36:38;;;;;;;7.22;5.20;;;17.40;99.90;;;;;;5042645;28;20032;-90
2022/06/01 04:39:04;;;;;;;7.68;5.53;;;17.40;99.90;;;;;;5057543;28;20032;-92
2022/06/01 04:41:31;;;;;;;4.65;4.25;;;17.40;99.90;;;;;;5048550;28;20028;-91
2022/06/01 04:43:56;;;;;;;9.88;5.18;;;17.50;99.90;;;;;;5062532;28;20040;-91
2022/06/01 04:46:22;;;;;;;5.38;4.43;;;17.60;99.90;;;;;;5064160;28;20162;-91
2022/06/01 04:48:48;;;;;;;4.75;4.35;;;17.70;99.90;;;;;;5048069;28;20017;-91
2022/06/01 04:51:15;;;;;;;4.63;4.20;;;17.80;99.90;;;;;;5045990;28;20075;-91
2022/06/01 04:53:44;;;;;;;7.00;4.57;;;18.00;99.90;;;;;;5067001;28;20028;-91
2022/06/01 04:56:11;;;;;;;5.67;5.00;;;18.10;99.90;;;;;;5040249;28;20036;-90
2022/06/01 04:58:38;;;;;;;5.10;4.63;;;18.10;99.90;;;;;;5046668;28;20258;-91
2022/06/01 05:01:04;;;;;;;7.03;4.93;;;18.20;99.90;;;;;;5065925;28;20032;-90
2022/06/01 05:03:30;;;;;;;6.45;4.35;;;18.10;99.90;;;;;;5046179;28;20374;-91
2022/06/01 05:05:56;;;;;;;6.03;4.82;;;18.20;99.90;;;;;;5064482;28;20112;-91
2022/06/01 05:08:22;;;;;;;5.45;4.90;;;18.20;99.90;;;;;;5047842;28;20059;-92
2022/06/01 05:10:47;;;;;;;5.75;5.07;;;18.30;99.90;;;;;;5048839;28;20531;-91
2022/06/01 05:13:17;;;;;;;4.90;4.50;;;18.40;99.90;;;;;;5075414;28;20471;-95
2022/06/01 05:15:50;;;;;;;;;;;18.40;99.90;;;;;;5039661;28;20029;-92
2022/06/01 05:18:17;;;;;;;11.15;5.10;;;18.40;99.90;;;;;;5055091;28;19905;-91
2022/06/01 05:20:43;;;;;;;5.15;4.65;;;18.50;99.90;;;;;;5055044;28;20013;-91
2022/06/01 05:23:08;;;;;;;7.93;5.07;;;18.50;99.90;;;;;;5037320;28;20066;-94
2022/06/01 18:23:51;;;;;;;9.55;4.85;;;22.80;78.90;;;;;;5110899;27;20858;-84
2022/06/01 18:26:18;;;;;;;8.48;5.20;;;22.10;77.80;;;;;;5109963;28;20028;-85
2022/06/01 18:28:44;;;;;;;10.00;5.47;;;21.90;79.50;;;;;;5108892;28;20027;-85
2022/06/01 18:31:28;;;;;;;11.05;5.97;;;21.90;81.70;;;;;;5109636;28;20069;-86
2022/06/01 18:33:54;;;;;;;11.48;6.00;;;21.80;82.20;;;;;;5110985;28;20522;-86
2022/06/01 18:36:22;;;;;;;14.27;5.13;;;21.80;82.90;;;;;;5110160;28;20024;-85
2022/06/01 18:38:48;;;;;;;11.38;5.88;;;21.80;83.50;;;;;;5109340;28;20045;-86
2022/06/01 18:41:14;;;;;;;11.00;5.72;;;21.70;84.20;;;;;;5109546;28;20027;-85
2022/06/01 18:43:41;;;;;;;7.10;5.40;;;21.70;84.90;;;;;;5108468;28;20036;-85
2022/06/01 18:46:08;;;;;;;11.20;6.38;;;21.70;85.60;;;;;;5109354;28;20028;-85
2022/06/01 18:48:35;;;;;;;9.18;5.45;;;21.70;86.60;;;;;;5109629;28;20389;-85
2022/06/01 18:51:02;;;;;;;11.35;6.20;;;21.70;87.30;;;;;;5109719;28;20020;-85
2022/06/01 18:53:29;;;;;;;10.27;5.80;;;21.70;88.00;;;;;;5111050;28;20023;-86
2022/06/01 18:55:56;;;;;;;8.93;5.88;;;21.70;88.30;;;;;;5111077;28;20020;-86
2022/06/01 18:58:23;;;;;;;8.38;5.75;;;21.70;88.60;;;;;;5109752;28;20470;-86
2022/06/01 19:03:35;;;;;;;7.97;6.00;;;21.70;89.80;;;;;;5111115;28;20026;-86
2022/06/01 19:06:01;;;;;;;9.45;6.18;;;21.70;90.10;;;;;;5109732;28;20020;-86
2022/06/01 19:08:29;;;;;;;11.40;6.75;;;21.70;90.50;;;;;;5110946;28;20020;-86
2022/06/01 19:11:00;;;;;;;13.50;6.93;;;21.70;90.60;;;;;;5109151;28;20027;-86
2022/06/01 19:13:31;;;;;;;12.52;7.35;;;21.70;90.50;;;;;;5109615;28;20020;-85
2022/06/01 19:16:29;;;;;;;10.73;7.45;;;21.70;90.70;;;;;;5110971;28;20055;-86
2022/06/01 19:18:56;;;;;;;12.48;7.03;;;21.70;90.70;;;;;;5110479;28;20078;-86
2022/06/01 19:21:23;;;;;;;11.50;7.18;;;21.60;90.80;;;;;;5110425;28;20535;-86
2022/06/01 19:23:49;;;;;;;12.63;6.85;;;21.60;90.90;;;;;;5109114;28;20043;-86
2022/06/01 19:26:15;;;;;;;14.25;7.30;;;21.60;91.00;;;;;;5109194;28;20020;-86
2022/06/01 19:28:44;;;;;;;13.18;7.22;;;21.60;91.10;;;;;;5109339;28;20023;-86
2022/06/01 19:31:11;;;;;;;10.73;7.60;;;21.60;91.20;;;;;;5109211;28;20465;-86
2022/06/01 19:33:37;;;;;;;11.95;7.18;;;21.60;91.40;;;;;;5104451;28;20024;-86
2022/06/01 19:44:23;;;;;;;12.60;7.78;;;21.60;92.00;;;;;;5096874;28;20073;-86
2022/06/01 19:46:51;;;;;;;11.10;7.45;;;21.60;92.10;;;;;;5091211;28;20107;-86
2022/06/01 19:49:20;;;;;;;14.32;8.15;;;21.70;92.30;;;;;;5095330;28;20028;-86
2022/06/01 19:51:46;;;;;;;13.60;8.27;;;21.70;92.40;;;;;;5095313;28;20020;-85
2022/06/01 19:54:12;;;;;;;14.98;8.10;;;21.70;92.60;;;;;;5095307;28;20473;-86
2022/06/01 19:56:39;;;;;;;15.18;8.32;;;21.70;92.50;;;;;;5096271;28;20039;-86
2022/06/01 19:59:07;;;;;;;12.25;7.78;;;21.70;92.40;;;;;;5096518;28;20020;-86
2022/06/01 20:01:33;;;;;;;14.77;8.25;;;21.80;92.60;;;;;;5095043;28;20053;-86
2022/06/01 20:03:59;;;;;;;12.27;7.80;;;21.80;92.60;;;;;;5096300;28;20052;-86
2022/06/01 20:06:25;;;;;;;11.48;7.15;;;21.80;93.00;;;;;;5095086;28;20043;-86
2022/06/01 20:08:51;;;;;;;9.45;6.57;;;21.80;93.40;;;;;;5096265;28;20466;-86
2022/06/01 20:14:01;;;;;;;10.02;5.50;;;21.90;92.10;;;;;;5096648;28;20385;-87
2022/06/01 20:16:27;;;;;;;6.65;5.00;;;22.00;91.00;;;;;;5094753;28;20024;-86
2022/06/01 20:18:53;;;;;;;5.85;4.47;;;22.20;90.40;;;;;;5096027;28;20036;-86
2022/06/01 20:21:19;;;;;;;6.90;5.13;;;22.30;89.90;;;;;;5094897;28;20031;-86
2022/06/01 20:23:45;;;;;;;8.27;4.85;;;22.70;87.80;;;;;;5094237;28;20405;-86
2022/06/01 20:26:11;;;;;;;8.40;5.45;;;22.70;87.10;;;;;;5096178;28;20047;-86
2022/06/01 20:28:36;;;;;;;8.35;5.70;;;22.90;86.60;;;;;;5094609;28;20024;-86
2022/06/01 20:31:02;;;;;;;7.43;5.47;;;23.00;86.50;;;;;;5094625;28;20028;-86
2022/06/01 20:33:29;;;;;;;8.88;6.43;;;23.00;86.60;;;;;;5095217;28;20455;-86
2022/06/01 20:35:55;;;;;;;7.75;5.70;;;23.00;87.60;;;;;;5093909;28;20020;-86
2022/06/01 20:38:21;;;;;;;7.60;6.15;;;23.00;88.20;;;;;;5094318;28;20028;-86
2022/06/01 20:40:47;;;;;;;9.65;5.60;;;23.00;90.10;;;;;;5095650;28;20020;-86
2022/06/01 20:43:13;;;;;;;8.32;6.32;;;22.90;90.50;;;;;;5094162;28;20028;-86
2022/06/01 20:45:39;;;;;;;8.75;5.85;;;22.90;90.90;;;;;;5094539;28;20359;-86
2022/06/01 20:48:06;;;;;;;9.70;5.55;;;22.90;91.10;;;;;;5095408;28;20028;-86
2022/06/01 20:50:33;;;;;;;7.13;5.57;;;22.80;91.10;;;;;;5094312;28;20020;-86
2022/06/01 20:52:59;;;;;;;7.85;6.20;;;22.80;91.50;;;;;;5095258;28;20101;-86
2022/06/01 20:55:25;;;;;;;8.57;5.80;;;22.70;91.80;;;;;;5094147;28;20027;-86
2022/06/01 20:57:51;;;;;;;8.25;6.25;;;22.70;92.10;;;;;;5095204;28;20034;-86
2022/06/01 21:00:20;;;;;;;10.93;6.25;;;22.60;92.30;;;;;;5093984;28;20478;-86
2022/06/01 21:02:46;;;;;;;11.82;7.07;;;22.50;92.50;;;;;;5095155;28;20366;-86
2022/06/01 21:05:13;;;;;;;13.38;7.53;;;22.40;92.70;;;;;;5094141;28;20047;-86
2022/06/01 21:07:40;;;;;;;10.27;6.78;;;22.40;93.20;;;;;;5093640;28;20028;-86
2022/06/01 21:10:08;;;;;;;10.90;6.45;;;22.30;93.10;;;;;;5093872;28;20070;-86
2022/06/01 21:12:34;;;;;;;7.10;6.10;;;22.20;92.90;;;;;;5093799;28;20024;-86
2022/06/01 21:15:00;;;;;;;8.98;6.60;;;22.10;93.00;;;;;;5093847;28;20032;-86
2022/06/01 21:17:28;;;;;;;10.88;6.60;;;22.00;93.20;;;;;;5093811;28;20024;-86
2022/06/01 21:19:55;;;;;;;9.50;6.38;;;21.90;93.60;;;;;;5093477;28;20535;-86
2022/06/01 21:22:20;;;;;;;8.23;6.75;;;21.90;93.70;;;;;;5093289;28;20048;-86
2022/06/01 21:24:46;;;;;;;9.63;6.70;;;21.80;93.70;;;;;;5093732;28;20157;-86
2022/06/01 21:27:14;;;;;;;10.02;6.70;;;21.70;93.70;;;;;;5093655;28;20027;-86
2022/06/01 21:29:40;;;;;;;13.40;7.18;;;21.60;93.90;;;;;;5094775;28;20119;-86
2022/06/01 21:32:07;;;;;;;9.70;7.03;;;21.50;94.10;;;;;;5094670;28;20064;-86
2022/06/01 21:34:33;;;;;;;11.68;7.50;;;21.50;94.30;;;;;;5092917;28;20482;-86
2022/06/01 21:36:58;;;;;;;9.65;7.00;;;21.40;94.30;;;;;;5094464;28;20063;-86
2022/06/01 21:39:24;;;;;;;10.00;7.47;;;21.30;94.80;;;;;;5093396;28;20035;-87
2022/06/01 21:41:50;;;;;;;9.23;6.60;;;21.30;94.90;;;;;;5093194;28;20027;-86
2022/06/01 21:44:16;;;;;;;15.32;7.82;;;21.20;95.00;;;;;;5093209;28;20028;-87
2022/06/01 21:46:42;;;;;;;9.15;7.05;;;21.10;95.20;;;;;;5093233;28;20474;-87
2022/06/01 21:49:07;;;;;;;9.48;6.78;;;21.00;95.50;;;;;;5094408;28;20020;-86
2022/06/01 21:51:34;;;;;;;11.73;7.50;;;21.00;95.80;;;;;;5093154;28;20050;-86
2022/06/01 21:53:59;;;;;;;10.18;7.07;;;20.90;96.40;;;;;;5093067;28;20373;-86
2022/06/01 21:56:25;;;;;;;8.80;7.15;;;20.80;96.60;;;;;;5092836;28;20020;-86
2022/06/01 21:58:51;;;;;;;10.23;7.53;;;20.80;96.90;;;;;;5093098;28;20074;-86
2022/06/01 22:01:17;;;;;;;10.35;7.20;;;20.70;96.90;;;;;;5092826;28;20016;-86
2022/06/01 22:03:42;;;;;;;11.07;6.93;;;20.80;97.00;;;;;;5092615;28;20028;-86
2022/06/01 22:06:08;;;;;;;8.23;6.70;;;20.70;97.10;;;;;;5092931;28;20020;-86
2022/06/01 22:08:34;;;;;;;12.40;7.85;;;20.80;97.30;;;;;;5092929;28;20028;-86
2022/06/01 22:13:44;;;;;;;11.27;7.38;;;20.80;97.40;;;;;;5094410;28;20038;-87
2022/06/01 22:16:13;;;;;;;10.48;7.65;;;20.80;97.50;;;;;;5093793;28;20110;-87
2022/06/01 22:18:39;;;;;;;11.48;7.75;;;20.80;97.80;;;;;;5092676;28;20024;-86
2022/06/01 22:21:05;;;;;;;9.00;6.80;;;20.80;98.00;;;;;;5093831;28;20028;-86
2022/06/01 22:23:32;;;;;;;8.70;7.45;;;20.80;98.40;;;;;;5092528;28;20044;-87
2022/06/01 22:25:58;;;;;;;11.75;7.70;;;20.80;98.10;;;;;;5092570;28;20027;-87
2022/06/01 22:28:23;;;;;;;8.45;6.72;;;20.70;98.30;;;;;;5094074;28;20020;-86
2022/06/01 22:30:49;;;;;;;8.68;6.90;;;20.60;98.50;;;;;;5092743;28;20020;-87
2022/06/01 22:33:15;;;;;;;10.85;7.28;;;20.50;98.50;;;;;;5092752;28;20043;-87
2022/06/01 22:38:30;;;;;;;12.05;7.65;;;20.40;99.00;;;;;;5093906;28;20036;-87
2022/06/01 22:40:57;;;;;;;10.13;7.13;;;20.30;99.30;;;;;;5092532;28;20457;-86
2022/06/01 22:43:23;;;;;;;11.60;7.47;;;20.30;99.80;;;;;;5093743;28;20024;-87
2022/06/01 22:45:49;;;;;;;11.98;7.90;;;20.30;99.90;;;;;;5092660;28;20031;-87
2022/06/01 22:48:25;;;;;;;19.02;7.75;;;20.20;99.90;;;;;;5092634;28;20111;-87
2022/06/01 22:50:52;;;;;;;13.45;7.20;;;20.20;99.90;;;;;;5094285;28;20366;-87
2022/06/01 22:53:24;;;;;;;11.50;6.78;;;20.20;99.90;;;;;;5092734;28;20056;-87
2022/06/01 22:55:50;;;;;;;10.48;6.72;;;20.20;99.90;;;;;;5093571;28;20016;-87
2022/06/01 22:58:16;;;;;;;9.68;7.00;;;20.20;99.90;;;;;;5092671;28;20032;-87
2022/06/01 23:00:42;;;;;;;17.52;7.60;;;20.20;99.90;;;;;;5093931;28;20024;-87
2022/06/01 23:03:08;;;;;;;12.02;6.95;;;20.20;99.90;;;;;;5092533;28;20069;-87
2022/06/01 23:05:35;;;;;;;15.32;7.57;;;20.20;99.90;;;;;;5093887;28;20051;-87
2022/06/01 23:08:00;;;;;;;11.05;7.43;;;20.10;99.90;;;;;;5092689;28;20035;-87
2022/06/01 23:10:27;;;;;;;11.00;7.53;;;20.10;99.90;;;;;;5095856;28;20482;-87
2022/06/01 23:12:55;;;;;;;15.02;7.10;;;20.10;99.90;;;;;;5096441;28;20028;-87
2022/06/01 23:15:20;;;;;;;12.90;7.55;;;20.10;99.90;;;;;;5097620;28;20044;-87
2022/06/01 23:17:46;;;;;;;12.40;7.55;;;20.10;99.90;;;;;;5096361;28;20504;-87
2022/06/01 23:20:23;;;;;;;11.07;7.78;;;20.00;99.90;;;;;;5096207;28;20126;-87
2022/06/01 23:22:49;;;;;;;12.55;7.88;;;20.00;99.90;;;;;;5095930;28;20079;-87
2022/06/01 23:25:15;;;;;;;17.67;8.13;;;20.00;99.90;;;;;;5097637;28;20470;-87
2022/06/01 23:27:40;;;;;;;20.52;8.40;;;19.90;99.90;;;;;;5096177;28;20477;-87
2022/06/01 23:30:07;;;;;;;12.27;7.75;;;19.90;99.90;;;;;;5097313;28;20031;-87
2022/06/01 23:32:38;;;;;;;13.98;8.32;;;19.90;99.90;;;;;;5097335;28;20024;-87
2022/06/01 23:35:09;;;;;;;15.50;7.95;;;19.80;99.90;;;;;;5095852;28;20036;-87
2022/06/01 23:37:46;;;;;;;13.23;9.23;;;19.80;99.90;;;;;;5095908;28;20440;-87
2022/06/01 23:40:34;;;;;;;13.95;8.43;;;19.70;99.90;;;;;;5096029;28;20113;-87
2022/06/01 23:43:12;;;;;;;13.02;8.60;;;19.70;99.90;;;;;;5065725;28;20036;-87
2022/06/01 23:45:40;;;;;;;18.90;8.85;;;19.60;99.90;;;;;;5095926;28;20020;-87
2022/06/01 23:51:42;;;;;;;19.05;9.15;;;19.60;99.90;;;;;;5096967;28;20437;-87
2022/06/01 23:54:43;;;;;;;12.07;8.35;;;19.50;99.90;;;;;;5095616;28;20028;-87
2022/06/01 23:57:38;;;;;;;14.88;9.02;;;19.40;99.90;;;;;;5076163;28;20028;-87
